Terminal Aerodrome Forecast
Issued by NWS Brownsville, TX

Home | Current Version | Previous Version | Text Only | Print | Product List | Glossary On
Versions: 1 2 3 4 5 6 7 8 9 10 11 12 13 14 15
006
FTUS44 KBRO 160520
TAFMFE
TAF
KMFE 160520Z 1606/1706 15014KT P6SM SKC
     FM161200 17012KT P6SM SCT020
     FM161800 19010KT P6SM BKN050
     FM170100 16008KT P6SM SCT020 BKN100=

USA.gov is the U.S. government's official web portal to all federal, state and local government web resources and services.